Time;durP1;ratioP1;P1;durP2;ratioP2;P2;SDS_P1;SDS_P2;PMS_P1;PMS_P2;Temp;Humidity;BMP_temperature;BMP_pressure;BME280_temperature;BME280_humidity;BME280_pressure;Samples;Min_cycle;Max_cycle;Signal;HPM_P1;HPM_P2
2024/01/15 00:01:03;;;;;;;6.80;0.60;;;;;;;1.64;100.00;99951.69;7392770;19;19923;-78
2024/01/15 00:03:35;;;;;;;4.53;1.08;;;;;;;1.61;100.00;99941.38;7392330;19;19953;-77
2024/01/15 00:06:04;;;;;;;7.60;1.33;;;;;;;1.59;100.00;99938.03;7394187;19;19933;-77
2024/01/15 00:08:33;;;;;;;12.02;1.40;;;;;;;1.57;100.00;99939.13;7392709;19;19919;-76
2024/01/15 00:11:01;;;;;;;7.80;1.10;;;;;;;1.56;100.00;99937.44;7390856;19;19943;-78
2024/01/15 00:13:30;;;;;;;7.22;0.95;;;;;;;1.53;100.00;99941.25;7394979;19;19957;-77
2024/01/15 00:15:59;;;;;;;9.32;1.52;;;;;;;1.49;100.00;99939.00;7390651;19;19935;-78
2024/01/15 00:18:28;;;;;;;5.22;0.70;;;;;;;1.45;100.00;99930.50;7394892;19;20271;-77
2024/01/15 00:21:19;;;;;;;4.90;0.75;;;;;;;1.39;100.00;99923.09;7391012;19;20056;-78
2024/01/15 00:23:48;;;;;;;4.55;1.10;;;;;;;1.33;100.00;99947.56;7394573;19;19994;-78
2024/01/15 00:26:16;;;;;;;3.90;0.77;;;;;;;1.25;100.00;99923.56;7391891;19;20038;-78
2024/01/15 00:28:45;;;;;;;10.05;0.98;;;;;;;1.18;100.00;99915.31;7392672;19;19930;-78
2024/01/15 00:31:14;;;;;;;3.83;0.73;;;;;;;1.13;100.00;99903.44;7391164;19;19926;-78
2024/01/15 00:33:42;;;;;;;4.20;1.20;;;;;;;1.09;100.00;99902.03;7391666;19;19929;-77
2024/01/15 00:36:11;;;;;;;3.53;0.90;;;;;;;1.09;100.00;99886.13;7393077;19;19923;-77
2024/01/15 00:39:04;;;;;;;4.25;0.60;;;;;;;1.09;100.00;99878.16;7391105;19;19918;-77
2024/01/15 00:41:34;;;;;;;2.17;0.30;;;;;;;1.11;100.00;99874.41;7391726;19;19918;-77
2024/01/15 00:44:02;;;;;;;5.28;0.70;;;;;;;1.12;100.00;99860.16;7393337;19;20022;-78
2024/01/15 00:46:31;;;;;;;1.90;0.40;;;;;;;1.14;100.00;99852.06;7390490;19;20382;-78
2024/01/15 00:49:00;;;;;;;2.78;0.73;;;;;;;1.13;100.00;99877.75;7389867;19;19961;-77
2024/01/15 00:51:28;;;;;;;1.98;0.82;;;;;;;1.11;100.00;99849.72;7388762;19;20546;-77
2024/01/15 00:53:57;;;;;;;1.85;0.40;;;;;;;1.09;100.00;99844.53;7390422;19;20348;-78
2024/01/15 00:56:28;;;;;;;2.70;0.22;;;;;;;1.09;100.00;99854.31;7391582;19;19922;-78
2024/01/15 00:58:58;;;;;;;3.00;0.50;;;;;;;1.09;100.00;99862.25;7391350;19;20285;-77
2024/01/15 01:01:26;;;;;;;7.05;0.50;;;;;;;1.09;100.00;99839.22;7387624;19;19922;-78
2024/01/15 01:03:55;;;;;;;4.03;0.70;;;;;;;1.11;100.00;99849.72;7398245;19;19973;-78
2024/01/15 01:06:24;;;;;;;5.90;0.98;;;;;;;1.14;100.00;99854.72;7398078;19;20424;-78
2024/01/15 01:08:52;;;;;;;3.22;0.47;;;;;;;1.16;100.00;99850.97;7397126;19;19922;-77
2024/01/15 01:11:21;;;;;;;3.83;0.60;;;;;;;1.23;100.00;99853.88;7393082;19;19986;-77
2024/01/15 01:13:53;;;;;;;4.47;1.40;;;;;;;1.26;100.00;99850.94;7398967;19;19926;-77
2024/01/15 01:16:22;;;;;;;2.70;0.70;;;;;;;1.25;100.00;99844.78;7398790;19;19922;-77
2024/01/15 01:18:51;;;;;;;7.53;1.05;;;;;;;1.26;100.00;99843.81;7397252;19;19956;-78
2024/01/15 01:21:20;;;;;;;3.08;0.70;;;;;;;1.30;100.00;99852.31;7396376;19;19926;-77
2024/01/15 01:23:49;;;;;;;3.60;0.52;;;;;;;1.33;100.00;99857.34;7396999;19;20006;-78
2024/01/15 01:26:18;;;;;;;4.53;0.60;;;;;;;1.38;100.00;99854.28;7398506;19;19922;-77
2024/01/15 01:28:47;;;;;;;4.03;0.65;;;;;;;1.39;100.00;99843.50;7397262;19;19963;-77
2024/01/15 01:31:19;;;;;;;3.83;0.80;;;;;;;1.41;100.00;99856.63;7397052;19;19939;-77
2024/01/15 01:33:47;;;;;;;5.50;1.30;;;;;;;1.42;100.00;99843.22;7397365;19;19939;-77
2024/01/15 01:36:16;;;;;;;7.05;0.60;;;;;;;1.45;100.00;99837.63;7397390;19;22468;-77
2024/01/15 01:38:45;;;;;;;4.82;0.70;;;;;;;1.49;100.00;99825.75;7399303;19;19930;-77
2024/01/15 01:41:13;;;;;;;1.42;0.57;;;;;;;1.50;100.00;99831.88;7391855;19;19918;-77
2024/01/15 01:43:42;;;;;;;3.85;0.60;;;;;;;1.49;100.00;99832.84;7395735;19;19923;-77
2024/01/15 01:46:11;;;;;;;5.38;1.15;;;;;;;1.45;100.00;99827.00;7397024;19;19918;-77
2024/01/15 01:48:42;;;;;;;5.07;1.02;;;;;;;1.44;100.00;99827.13;7398185;19;19970;-77
2024/01/15 01:51:12;;;;;;;5.20;0.70;;;;;;;1.46;100.00;99819.88;7395747;19;19932;-77
2024/01/15 01:53:41;;;;;;;3.78;0.50;;;;;;;1.46;100.00;99814.59;7396989;19;20424;-77
2024/01/15 01:56:10;;;;;;;3.20;0.95;;;;;;;1.48;100.00;99816.09;7396839;19;19922;-77
2024/01/15 01:58:39;;;;;;;4.90;1.05;;;;;;;1.51;100.00;99812.34;7399789;19;20327;-77
2024/01/15 02:01:09;;;;;;;3.72;0.88;;;;;;;1.52;100.00;99829.91;7406150;19;19919;-77
2024/01/15 02:03:38;;;;;;;6.35;0.90;;;;;;;1.52;100.00;99820.13;7406144;19;20229;-77
2024/01/15 02:06:10;;;;;;;8.27;1.25;;;;;;;1.53;100.00;99820.97;7398819;19;19922;-77
2024/01/15 02:08:39;;;;;;;4.00;0.70;;;;;;;1.52;100.00;99830.75;7394142;19;20360;-77
2024/01/15 02:11:08;;;;;;;6.72;0.90;;;;;;;1.52;100.00;99824.59;7394045;19;19914;-77
2024/01/15 02:13:37;;;;;;;5.47;0.93;;;;;;;1.50;100.00;99832.72;7396697;19;20264;-77
2024/01/15 02:16:06;;;;;;;7.82;1.25;;;;;;;1.50;100.00;99826.56;7396543;19;19943;-77
2024/01/15 02:18:43;;;;;;;8.13;1.77;;;;;;;1.50;100.00;99829.22;7393612;19;20276;-77
2024/01/15 02:21:14;;;;;;;6.30;1.35;;;;;;;1.49;100.00;99816.94;7391848;19;19922;-77
2024/01/15 02:23:46;;;;;;;10.55;1.08;;;;;;;1.47;100.00;99819.72;7395785;19;20283;-77
2024/01/15 02:26:15;;;;;;;3.88;0.95;;;;;;;1.46;100.00;99823.38;7397373;19;19919;-77
2024/01/15 02:28:44;;;;;;;6.95;1.02;;;;;;;1.46;100.00;99820.72;7392749;19;19938;-77
2024/01/15 02:31:13;;;;;;;5.28;0.80;;;;;;;1.48;100.00;99824.06;7390206;19;20269;-77
2024/01/15 02:33:42;;;;;;;5.25;0.90;;;;;;;1.53;100.00;99818.31;7396580;19;19919;-77
2024/01/15 02:36:30;;;;;;;5.50;1.00;;;;;;;1.56;100.00;99824.16;7395141;19;19918;-77
2024/01/15 02:39:01;;;;;;;9.82;1.20;;;;;;;1.59;100.00;99823.91;7394607;19;20339;-78
2024/01/15 02:41:30;;;;;;;6.15;0.95;;;;;;;1.61;100.00;99813.13;7391361;19;19922;-77
2024/01/15 02:43:59;;;;;;;8.88;0.88;;;;;;;1.64;100.00;99804.88;7393982;19;19926;-77
2024/01/15 02:46:27;;;;;;;10.65;1.20;;;;;;;1.67;100.00;99810.72;7395036;19;19914;-77
2024/01/15 02:48:56;;;;;;;3.92;0.75;;;;;;;1.70;100.00;99812.25;7394970;19;20710;-77
2024/01/15 02:51:24;;;;;;;10.55;1.77;;;;;;;1.75;100.00;99808.19;7393807;19;19922;-77
2024/01/15 02:53:53;;;;;;;6.10;0.85;;;;;;;1.80;100.00;99824.50;7395873;19;19919;-77
2024/01/15 02:56:24;;;;;;;8.30;1.02;;;;;;;1.89;100.00;99824.59;7394895;19;19949;-77
2024/01/15 02:58:53;;;;;;;6.90;1.08;;;;;;;1.90;100.00;99828.94;7397056;19;19918;-77
2024/01/15 03:01:22;;;;;;;5.03;1.10;;;;;;;1.89;100.00;99824.59;7389945;19;19914;-78
2024/01/15 03:03:51;;;;;;;7.35;1.42;;;;;;;1.87;100.00;99824.75;7394672;19;19923;-78
2024/01/15 03:06:19;;;;;;;11.57;1.85;;;;;;;1.87;100.00;99830.06;7394780;19;19986;-77
2024/01/15 03:08:48;;;;;;;6.32;0.93;;;;;;;1.86;100.00;99828.38;7394895;19;19922;-77
2024/01/15 03:11:17;;;;;;;9.77;0.95;;;;;;;1.86;100.00;99820.41;7393119;19;19922;-78
2024/01/15 03:13:48;;;;;;;2.97;0.90;;;;;;;1.86;100.00;99838.16;7395150;19;19922;-78
2024/01/15 03:16:37;;;;;;;4.72;0.90;;;;;;;1.85;100.00;99825.88;7391470;19;19929;-77
2024/01/15 03:19:25;;;;;;;11.30;1.63;;;;;;;1.80;100.00;99828.97;7389202;19;19919;-77
2024/01/15 03:21:54;;;;;;;5.22;1.25;;;;;;;1.77;100.00;99832.75;7396046;19;19985;-77
2024/01/15 03:24:23;;;;;;;10.07;1.00;;;;;;;1.77;100.00;99834.56;7396464;19;19923;-78
2024/01/15 03:26:52;;;;;;;8.88;0.95;;;;;;;1.74;100.00;99841.00;7392612;19;19977;-77
2024/01/15 03:29:23;;;;;;;6.88;0.73;;;;;;;1.73;100.00;99841.97;7391596;19;19926;-77
2024/01/15 03:31:52;;;;;;;10.13;1.35;;;;;;;1.74;100.00;99834.84;7394851;19;20407;-77
2024/01/15 03:34:21;;;;;;;2.72;0.52;;;;;;;1.78;100.00;99850.34;7393176;19;19918;-77
2024/01/15 03:36:50;;;;;;;6.95;1.20;;;;;;;1.83;100.00;99848.09;7393845;19;20010;-77
2024/01/15 03:39:19;;;;;;;8.15;0.95;;;;;;;1.88;100.00;99854.78;7392898;19;19946;-78
2024/01/15 03:41:47;;;;;;;6.88;1.08;;;;;;;1.96;100.00;99860.19;7395125;19;19918;-77
2024/01/15 03:44:16;;;;;;;2.20;0.63;;;;;;;2.04;100.00;99862.94;7394421;19;19923;-77
2024/01/15 03:46:47;;;;;;;3.40;1.00;;;;;;;2.12;100.00;99852.44;7393919;19;19933;-77
2024/01/15 03:49:36;;;;;;;5.93;1.10;;;;;;;2.11;100.00;99843.66;7388668;19;20256;-77
2024/01/15 03:52:05;;;;;;;2.70;0.45;;;;;;;2.07;100.00;99836.94;7394263;19;19927;-78
2024/01/15 03:54:53;;;;;;;1.95;0.73;;;;;;;2.03;100.00;99837.41;7394116;19;19918;-77
2024/01/15 03:57:22;;;;;;;5.57;0.70;;;;;;;2.00;100.00;99835.00;7395595;19;19927;-77
2024/01/15 03:59:51;;;;;;;2.67;0.50;;;;;;;1.96;100.00;99826.50;7393243;19;20548;-77
2024/01/15 04:02:23;;;;;;;4.75;0.68;;;;;;;1.93;100.00;99826.81;7395438;19;20805;-77
2024/01/15 04:04:52;;;;;;;2.22;0.40;;;;;;;1.91;100.00;99831.44;7395582;19;20005;-77
2024/01/15 04:07:20;;;;;;;3.45;0.80;;;;;;;1.89;100.00;99827.25;7394204;19;19926;-77
2024/01/15 04:09:49;;;;;;;3.78;0.68;;;;;;;1.84;100.00;99825.03;7392510;19;19942;-79
2024/01/15 04:12:18;;;;;;;6.47;0.50;;;;;;;1.80;100.00;99818.34;7397669;19;19937;-77
2024/01/15 04:14:46;;;;;;;3.38;0.80;;;;;;;1.80;100.00;99815.69;7402787;19;19926;-77
2024/01/15 04:17:15;;;;;;;6.57;0.70;;;;;;;1.79;100.00;99819.34;7400697;19;19926;-77
2024/01/15 04:19:49;;;;;;;5.68;0.43;;;;;;;1.76;100.00;99828.44;7395685;19;19937;-77
2024/01/15 04:22:17;;;;;;;4.78;0.60;;;;;;;1.72;100.00;99829.72;7392404;19;19932;-77
2024/01/15 04:24:46;;;;;;;5.25;0.82;;;;;;;1.66;100.00;99827.63;7393845;19;19919;-77
2024/01/15 04:27:14;;;;;;;4.38;0.82;;;;;;;1.62;100.00;99823.59;7392827;19;19972;-77
2024/01/15 04:29:44;;;;;;;5.35;0.68;;;;;;;1.59;100.00;99820.41;7396612;19;19926;-77
2024/01/15 04:32:13;;;;;;;5.32;0.75;;;;;;;1.56;100.00;99821.50;7389987;19;19925;-77
2024/01/15 04:34:42;;;;;;;7.88;0.80;;;;;;;1.59;100.00;99809.78;7395913;19;20428;-77
2024/01/15 04:37:33;;;;;;;9.10;1.20;;;;;;;1.59;100.00;99809.78;7398571;19;20645;-77
2024/01/15 04:40:03;;;;;;;6.88;0.93;;;;;;;1.60;100.00;99809.63;7400163;19;19919;-77
2024/01/15 04:42:34;;;;;;;5.10;1.25;;;;;;;1.63;100.00;99801.38;7399750;19;19926;-77
2024/01/15 04:45:03;;;;;;;6.15;1.15;;;;;;;1.60;100.00;99836.16;7401885;19;19915;-77
2024/01/15 04:47:32;;;;;;;6.55;1.13;;;;;;;1.62;100.00;99847.50;7400632;19;19918;-77
2024/01/15 04:50:01;;;;;;;3.17;0.55;;;;;;;1.61;100.00;99864.38;7398047;19;19946;-77
2024/01/15 04:52:30;;;;;;;3.08;0.65;;;;;;;1.57;100.00;99819.69;7396894;19;20347;-78
2024/01/15 04:55:01;;;;;;;4.00;0.75;;;;;;;1.55;100.00;99824.34;7397887;19;20340;-78
2024/01/15 04:57:29;;;;;;;2.88;0.40;;;;;;;1.49;100.00;99793.91;7398811;19;19930;-77
2024/01/15 04:59:58;;;;;;;6.18;0.70;;;;;;;1.43;100.00;99825.47;7395095;19;20293;-78
2024/01/15 05:02:28;;;;;;;4.53;0.63;;;;;;;1.38;100.00;99859.59;7396522;19;20347;-78
2024/01/15 05:04:57;;;;;;;4.15;1.40;;;;;;;1.35;100.00;99850.91;7399547;19;20365;-78
2024/01/15 05:07:25;;;;;;;7.63;1.63;;;;;;;1.30;100.00;99854.97;7396619;19;19950;-78
2024/01/15 05:09:54;;;;;;;5.32;0.73;;;;;;;1.24;100.00;99866.16;7395753;19;19977;-78
2024/01/15 05:12:26;;;;;;;6.72;1.45;;;;;;;1.17;100.00;99834.03;7396804;19;20558;-78
2024/01/15 05:15:14;;;;;;;3.60;0.77;;;;;;;1.09;100.00;99827.78;7393858;19;19918;-78
2024/01/15 05:17:43;;;;;;;3.22;0.40;;;;;;;1.06;100.00;99841.34;7400281;19;19926;-77
2024/01/15 05:20:31;;;;;;;6.68;1.20;;;;;;;1.04;100.00;99832.66;7394929;19;20256;-77
2024/01/15 05:23:00;;;;;;;2.90;0.90;;;;;;;1.01;100.00;99830.31;7393301;19;20020;-77
2024/01/15 05:25:29;;;;;;;3.33;0.77;;;;;;;1.01;100.00;99846.22;7398055;19;19930;-78
2024/01/15 05:28:01;;;;;;;5.18;1.08;;;;;;;1.02;100.00;99811.63;7395448;19;20405;-77
2024/01/15 05:30:29;;;;;;;6.72;0.98;;;;;;;1.05;100.00;99837.00;7396467;19;19931;-78
2024/01/15 05:33:00;;;;;;;6.43;1.27;;;;;;;1.07;100.00;99843.84;7396736;19;19934;-77
2024/01/15 05:35:28;;;;;;;4.43;0.63;;;;;;;1.05;100.00;99837.84;7398594;19;19928;-77
2024/01/15 05:37:57;;;;;;;2.75;0.45;;;;;;;1.01;100.00;99835.63;7395254;19;20218;-77
2024/01/15 05:40:25;;;;;;;4.35;0.88;;;;;;;0.95;100.00;99836.19;7395678;19;19918;-78
2024/01/15 05:42:54;;;;;;;5.00;0.75;;;;;;;0.89;100.00;99827.81;7395169;19;20801;-77
2024/01/15 05:45:25;;;;;;;4.90;0.60;;;;;;;0.88;100.00;99822.66;7395852;19;19922;-78
2024/01/15 05:47:54;;;;;;;7.35;0.98;;;;;;;0.84;100.00;99824.75;7393332;19;19959;-78
2024/01/15 05:50:22;;;;;;;7.40;0.90;;;;;;;0.83;100.00;99811.63;7395389;19;19929;-78
2024/01/15 05:52:51;;;;;;;1.67;0.75;;;;;;;0.81;100.00;99814.44;7393927;19;20713;-78
2024/01/15 05:55:20;;;;;;;3.00;0.52;;;;;;;0.84;100.00;99808.84;7396510;19;20229;-78
2024/01/15 05:57:49;;;;;;;6.97;0.88;;;;;;;0.86;100.00;99806.88;7396844;19;19942;-78
2024/01/15 06:00:18;;;;;;;6.03;0.77;;;;;;;0.90;100.00;99791.53;7394492;19;19946;-78
2024/01/15 06:03:10;;;;;;;5.75;0.60;;;;;;;0.91;100.00;99791.38;7396561;19;19915;-78
2024/01/15 06:05:39;;;;;;;8.68;0.70;;;;;;;0.96;100.00;99790.97;7397980;19;19944;-78
2024/01/15 06:08:08;;;;;;;7.38;1.38;;;;;;;0.99;100.00;99790.69;7391115;19;19919;-78
2024/01/15 06:10:37;;;;;;;3.53;0.80;;;;;;;1.02;100.00;99797.53;7396548;19;20532;-78
2024/01/15 06:13:06;;;;;;;5.57;0.65;;;;;;;1.03;100.00;99793.91;7397348;19;19929;-78
2024/01/15 06:15:34;;;;;;;1.85;0.50;;;;;;;1.03;100.00;99800.03;7395771;19;19946;-78
2024/01/15 06:18:25;;;;;;;6.75;1.23;;;;;;;1.05;100.00;99794.56;7395754;19;20033;-78
2024/01/15 06:20:54;;;;;;;4.22;0.70;;;;;;;1.07;100.00;99809.38;7394370;19;19941;-78
2024/01/15 06:23:22;;;;;;;6.88;1.48;;;;;;;1.09;100.00;99803.91;7394059;19;19926;-78
2024/01/15 06:25:51;;;;;;;1.83;0.50;;;;;;;1.11;100.00;99799.31;7396125;19;19950;-78
2024/01/15 06:28:20;;;;;;;7.80;0.93;;;;;;;1.11;100.00;99799.31;7403381;19;19923;-78
2024/01/15 06:31:09;;;;;;;6.28;0.93;;;;;;;1.10;100.00;99802.94;7395456;19;19937;-78
2024/01/15 06:33:40;;;;;;;7.20;0.60;;;;;;;1.08;100.00;99810.22;7398994;19;19981;-78
2024/01/15 06:36:10;;;;;;;5.85;0.70;;;;;;;1.07;100.00;99805.88;7394323;19;19926;-78
2024/01/15 06:38:39;;;;;;;4.85;0.63;;;;;;;1.02;100.00;99808.97;7398008;19;19926;-78
2024/01/15 06:41:07;;;;;;;5.53;1.00;;;;;;;0.98;100.00;99796.97;7393339;19;19926;-78
2024/01/15 06:43:36;;;;;;;8.90;0.90;;;;;;;0.93;100.00;99790.41;7393233;19;20700;-78
2024/01/15 06:46:05;;;;;;;4.43;0.80;;;;;;;0.88;100.00;99799.63;7394369;19;20352;-78
2024/01/15 06:48:33;;;;;;;3.75;0.70;;;;;;;0.85;100.00;99797.28;7397532;19;19927;-78
2024/01/15 06:51:05;;;;;;;7.45;1.10;;;;;;;0.84;100.00;99795.59;7397964;19;19926;-78
2024/01/15 06:53:53;;;;;;;4.72;0.77;;;;;;;0.84;100.00;99808.00;7394182;19;19982;-78
2024/01/15 06:56:22;;;;;;;3.60;0.63;;;;;;;0.86;100.00;99814.81;7394886;19;19926;-78
2024/01/15 06:58:51;;;;;;;4.85;0.63;;;;;;;0.89;100.00;99821.69;7397100;19;19951;-78
2024/01/15 07:01:19;;;;;;;7.38;1.25;;;;;;;0.91;100.00;99836.47;7390936;19;20333;-78
2024/01/15 07:03:49;;;;;;;3.20;0.90;;;;;;;0.91;100.00;99825.84;7394464;19;19911;-77
2024/01/15 07:06:20;;;;;;;8.30;1.02;;;;;;;0.93;100.00;99838.97;7397280;19;19939;-79
2024/01/15 07:08:49;;;;;;;8.80;0.90;;;;;;;0.91;100.00;99839.09;7397275;19;20022;-79
2024/01/15 07:11:18;;;;;;;5.32;0.60;;;;;;;0.93;100.00;99838.13;7394298;19;19931;-79
2024/01/15 07:13:47;;;;;;;3.80;1.05;;;;;;;0.94;100.00;99826.56;7394302;19;20363;-81
2024/01/15 07:16:15;;;;;;;6.53;0.95;;;;;;;0.91;100.00;99820.53;7393168;19;19922;-84
2024/01/15 07:18:44;;;;;;;5.25;1.70;;;;;;;0.89;100.00;99822.53;7397501;19;19922;-82
2024/01/15 07:21:13;;;;;;;7.38;0.85;;;;;;;0.87;100.00;99815.66;7396553;19;19939;-81
2024/01/15 07:23:44;;;;;;;2.55;0.88;;;;;;;0.86;100.00;99808.72;7396039;19;19927;-80
2024/01/15 07:26:12;;;;;;;5.10;0.85;;;;;;;0.85;100.00;99810.53;7392748;19;19926;-80
2024/01/15 07:28:41;;;;;;;4.15;0.70;;;;;;;0.84;100.00;99816.78;7394362;19;19930;-81
2024/01/15 07:31:09;;;;;;;1.90;0.52;;;;;;;0.86;100.00;99812.19;7395043;19;19922;-80
2024/01/15 07:33:38;;;;;;;8.60;1.77;;;;;;;0.87;100.00;99811.22;7392217;19;19970;-80
2024/01/15 07:36:07;;;;;;;11.45;1.50;;;;;;;0.87;100.00;99818.31;7394533;19;20261;-80
2024/01/15 07:38:36;;;;;;;5.80;0.70;;;;;;;0.84;100.00;99813.31;7395404;19;19918;-81
2024/01/15 07:41:08;;;;;;;4.57;0.73;;;;;;;0.84;100.00;99802.69;7397932;19;19927;-81
2024/01/15 07:43:36;;;;;;;3.85;0.82;;;;;;;0.83;100.00;99811.63;7396008;19;19927;-80
2024/01/15 07:46:05;;;;;;;9.10;1.17;;;;;;;0.84;100.00;99813.31;7394625;19;19968;-80
2024/01/15 07:48:34;;;;;;;5.43;1.38;;;;;;;0.82;100.00;99812.63;7394682;19;20441;-81
2024/01/15 07:51:04;;;;;;;5.07;0.98;;;;;;;0.79;100.00;99832.28;7396178;19;20470;-81
2024/01/15 07:53:32;;;;;;;4.88;2.03;;;;;;;0.77;100.00;99810.41;7396362;19;19933;-80
2024/01/15 07:56:01;;;;;;;2.85;0.65;;;;;;;0.77;100.00;99814.84;7392026;19;20395;-81
2024/01/15 07:58:32;;;;;;;6.20;1.13;;;;;;;0.75;100.00;99814.16;7391631;19;19945;-81
2024/01/15 08:01:00;;;;;;;7.13;0.75;;;;;;;0.76;100.00;99807.88;7393777;19;19949;-81
2024/01/15 08:03:29;;;;;;;4.28;0.50;;;;;;;0.77;100.00;99793.66;7395049;19;19914;-81
2024/01/15 08:05:59;;;;;;;3.80;0.60;;;;;;;0.77;100.00;99805.09;7390503;19;19929;-80
2024/01/15 08:08:27;;;;;;;3.63;0.80;;;;;;;0.77;100.00;99809.56;7395971;19;19986;-81
2024/01/15 08:10:56;;;;;;;2.40;0.52;;;;;;;0.78;100.00;99804.09;7394567;19;20671;-81
2024/01/15 08:13:25;;;;;;;3.83;0.50;;;;;;;0.82;100.00;99805.47;7386762;19;19938;-80
2024/01/15 08:15:56;;;;;;;4.95;0.98;;;;;;;0.84;100.00;99808.84;7392036;19;19918;-80
2024/01/15 08:18:25;;;;;;;6.28;0.80;;;;;;;0.88;100.00;99812.03;7394633;19;19918;-80
2024/01/15 08:20:53;;;;;;;5.80;0.82;;;;;;;0.89;100.00;99811.06;7391339;19;19914;-80
2024/01/15 08:23:22;;;;;;;5.05;0.93;;;;;;;0.87;100.00;99808.56;7392761;19;19923;-80
2024/01/15 08:26:11;;;;;;;5.88;1.65;;;;;;;0.89;100.00;99811.91;7389683;19;19919;-80
2024/01/15 08:28:40;;;;;;;7.78;1.42;;;;;;;0.93;100.00;99801.84;7390266;19;19915;-80
2024/01/15 08:31:31;;;;;;;7.68;1.45;;;;;;;0.94;100.00;99797.41;7392808;19;19958;-81
2024/01/15 08:34:01;;;;;;;5.85;0.90;;;;;;;0.97;100.00;99795.28;7393652;19;19922;-81
2024/01/15 08:36:30;;;;;;;6.40;1.55;;;;;;;1.00;100.00;99800.31;7393839;19;19950;-81
2024/01/15 08:38:59;;;;;;;8.25;1.15;;;;;;;1.03;100.00;99796.53;7395117;19;19923;-80
2024/01/15 08:41:28;;;;;;;11.07;1.40;;;;;;;1.07;100.00;99798.78;7407338;19;19934;-80
2024/01/15 08:44:16;;;;;;;5.15;1.10;;;;;;;1.11;100.00;99788.72;7395790;19;20364;-80
2024/01/15 08:46:47;;;;;;;7.57;1.23;;;;;;;1.08;100.00;99789.00;7393269;19;19918;-80
2024/01/15 08:49:16;;;;;;;3.70;0.75;;;;;;;1.09;100.00;99795.97;7395385;19;19914;-80
2024/01/15 08:51:44;;;;;;;8.30;0.70;;;;;;;1.10;100.00;99802.94;7394397;19;19939;-80
2024/01/15 08:54:33;;;;;;;3.97;0.73;;;;;;;1.11;100.00;99804.63;7391547;19;20264;-80
2024/01/15 08:57:02;;;;;;;6.43;1.02;;;;;;;1.13;100.00;99800.84;7392748;19;20018;-80
2024/01/15 08:59:51;;;;;;;5.05;0.80;;;;;;;1.11;100.00;99805.47;7392237;19;19918;-80
2024/01/15 09:02:22;;;;;;;5.72;0.70;;;;;;;1.10;100.00;99817.03;7390410;19;19989;-80
2024/01/15 09:04:51;;;;;;;3.80;0.90;;;;;;;1.09;100.00;99822.47;7391341;19;19941;-80
2024/01/15 09:07:21;;;;;;;5.32;1.08;;;;;;;1.08;100.00;99805.72;7390765;19;19925;-80
2024/01/15 09:09:49;;;;;;;4.15;0.43;;;;;;;1.09;100.00;99807.41;7394476;19;19918;-81
2024/01/15 09:12:18;;;;;;;4.13;0.73;;;;;;;1.09;100.00;99823.31;7392567;19;19962;-80
2024/01/15 09:14:47;;;;;;;6.63;1.20;;;;;;;1.12;100.00;99814.25;7390471;19;19935;-81
2024/01/15 09:17:15;;;;;;;2.55;0.80;;;;;;;1.10;100.00;99802.94;7392950;19;20344;-81
2024/01/15 09:19:46;;;;;;;3.90;0.77;;;;;;;1.05;100.00;99829.88;7394460;19;19925;-81
2024/01/15 09:22:18;;;;;;;8.77;1.17;;;;;;;1.06;100.00;99833.38;7393329;19;19982;-81
2024/01/15 09:24:47;;;;;;;4.40;0.95;;;;;;;0.99;100.00;99826.97;7395392;19;19922;-81
2024/01/15 09:27:16;;;;;;;6.53;1.00;;;;;;;0.94;100.00;99838.00;7398081;19;19927;-81
2024/01/15 09:29:46;;;;;;;6.60;0.63;;;;;;;0.88;100.00;99807.59;7398260;19;19922;-80
2024/01/15 09:32:15;;;;;;;1.05;0.60;;;;;;;0.84;100.00;99800.06;7398503;19;19934;-80
2024/01/15 09:34:48;;;;;;;2.50;0.73;;;;;;;0.85;100.00;99791.97;7393062;19;19962;-80
2024/01/15 09:37:16;;;;;;;4.13;0.45;;;;;;;0.86;100.00;99795.47;7394602;19;19922;-80
2024/01/15 09:39:46;;;;;;;3.85;0.30;;;;;;;0.89;100.00;99801.31;7395178;19;19919;-82
2024/01/15 09:42:14;;;;;;;8.75;0.60;;;;;;;0.88;100.00;99806.75;7397783;19;19926;-81
2024/01/15 09:44:44;;;;;;;1.85;0.35;;;;;;;0.84;100.00;99822.09;7399283;19;19923;-79
2024/01/15 09:47:12;;;;;;;2.30;0.40;;;;;;;0.77;100.00;99839.56;7399608;19;19975;-80
2024/01/15 09:49:42;;;;;;;4.03;0.47;;;;;;;0.71;100.00;99813.59;7398107;19;19934;-81
2024/01/15 09:52:15;;;;;;;2.05;0.30;;;;;;;0.66;100.00;99817.63;7397576;19;19923;-81
2024/01/15 09:54:46;;;;;;;2.22;0.28;;;;;;;0.68;100.00;99799.78;7396472;19;19942;-80
2024/01/15 09:57:15;;;;;;;1.65;0.30;;;;;;;0.74;100.00;99802.69;7397555;19;19958;-81
2024/01/15 09:59:46;;;;;;;2.50;0.45;;;;;;;0.79;100.00;99802.28;7399180;19;19930;-80
2024/01/15 10:02:17;;;;;;;2.55;0.38;;;;;;;0.85;100.00;99791.13;7399283;19;19946;-80
2024/01/15 10:04:46;;;;;;;2.83;0.38;;;;;;;0.90;100.00;99805.63;7396156;19;20260;-80
2024/01/15 10:07:19;;;;;;;3.30;0.80;;;;;;;0.97;100.00;99807.72;7396117;19;19926;-80
2024/01/15 10:09:49;;;;;;;1.75;0.50;;;;;;;1.03;100.00;99802.69;7398580;19;19924;-81
2024/01/15 10:12:18;;;;;;;3.78;1.05;;;;;;;1.09;100.00;99809.22;7406200;19;19982;-80
2024/01/15 10:14:49;;;;;;;3.47;0.70;;;;;;;1.12;100.00;99811.59;7401937;19;19937;-80
2024/01/15 10:17:18;;;;;;;2.95;0.50;;;;;;;1.12;100.00;99812.41;7401581;19;20707;-79
2024/01/15 10:19:49;;;;;;;2.25;0.55;;;;;;;1.09;100.00;99830.44;7400305;19;19926;-80
2024/01/15 10:22:20;;;;;;;1.92;0.52;;;;;;;1.07;100.00;99825.28;7396476;19;19914;-80
2024/01/15 10:24:49;;;;;;;2.40;0.32;;;;;;;1.04;100.00;99812.28;7400414;19;19922;-80
2024/01/15 10:27:18;;;;;;;1.73;0.45;;;;;;;1.03;100.00;99802.69;7398440;19;19910;-80
2024/01/15 10:29:47;;;;;;;4.28;0.70;;;;;;;1.07;100.00;99805.88;7391002;19;19931;-80
2024/01/15 10:32:15;;;;;;;4.75;0.47;;;;;;;1.11;100.00;99794.84;7396264;19;19941;-80
2024/01/15 10:34:44;;;;;;;6.93;0.85;;;;;;;1.15;100.00;99796.25;7395577;19;20459;-81
2024/01/15 10:37:13;;;;;;;4.55;0.68;;;;;;;1.26;100.00;99797.88;7395305;19;19956;-80
2024/01/15 10:39:44;;;;;;;6.10;0.82;;;;;;;1.34;100.00;99805.94;7397075;19;19930;-80
2024/01/15 10:42:13;;;;;;;4.63;0.88;;;;;;;1.48;100.00;99807.28;7398205;19;20277;-80
2024/01/15 10:44:43;;;;;;;3.65;0.65;;;;;;;1.70;100.00;99798.97;7399629;19;20031;-80
2024/01/15 10:47:12;;;;;;;4.38;0.50;;;;;;;1.99;100.00;99780.22;7398191;19;19918;-80
2024/01/15 10:49:41;;;;;;;4.65;1.02;;;;;;;2.16;100.00;99809.47;7398604;19;19923;-80
2024/01/15 10:52:10;;;;;;;5.63;0.77;;;;;;;2.43;100.00;99779.38;7393734;19;19926;-80
2024/01/15 10:54:41;;;;;;;2.80;0.40;;;;;;;2.70;100.00;99787.25;7398646;19;19930;-81
2024/01/15 10:57:13;;;;;;;1.23;0.32;;;;;;;2.60;100.00;99781.19;7397787;19;19926;-80
2024/01/15 10:59:41;;;;;;;3.63;0.73;;;;;;;2.24;100.00;99782.19;7400041;19;19926;-79
2024/01/15 11:02:11;;;;;;;4.32;0.57;;;;;;;1.98;100.00;99795.34;7396000;19;20300;-80
2024/01/15 11:04:39;;;;;;;1.30;0.40;;;;;;;1.71;100.00;99801.50;7398038;19;19946;-80
2024/01/15 11:07:10;;;;;;;3.53;0.70;;;;;;;1.31;100.00;99806.22;7394757;19;19934;-80
2024/01/15 11:09:39;;;;;;;1.95;0.32;;;;;;;1.05;100.00;99797.22;7396776;19;19918;-80
2024/01/15 11:12:17;;;;;;;4.80;0.85;;;;;;;0.90;100.00;99795.03;7395652;19;19915;-80
2024/01/15 11:14:49;;;;;;;4.82;1.10;;;;;;;0.86;100.00;99792.81;7395011;19;19918;-80
2024/01/15 11:17:19;;;;;;;2.60;0.60;;;;;;;0.84;100.00;99800.91;7395553;19;20265;-80
2024/01/15 11:19:50;;;;;;;1.40;0.40;;;;;;;0.85;100.00;99801.72;7395789;19;19929;-80
2024/01/15 11:22:51;;;;;;;6.47;1.15;;;;;;;0.83;100.00;99801.88;7390722;19;20388;-81
2024/01/15 11:25:21;;;;;;;6.72;0.90;;;;;;;0.84;100.00;99792.94;7388435;19;20558;-90
2024/01/15 11:27:55;;;;;;;5.32;1.33;;;;;;;0.85;100.00;99799.91;7400468;19;19923;-91
2024/01/15 11:30:27;;;;;;;4.07;0.70;;;;;;;0.90;100.00;99791.53;7399788;19;20264;-92
2024/01/15 11:32:56;;;;;;;1.80;0.55;;;;;;;0.93;100.00;99791.25;7398147;19;19926;-90
2024/01/15 11:35:24;;;;;;;2.72;0.73;;;;;;;0.99;100.00;99803.13;7397928;19;20379;-91
2024/01/15 11:38:01;;;;;;;7.03;1.02;;;;;;;1.05;100.00;99802.53;7394650;19;19922;-82
2024/01/15 11:40:42;;;;;;;5.03;0.70;;;;;;;1.11;100.00;99799.31;7395167;19;19926;-90
2024/01/15 11:43:15;;;;;;;10.43;0.75;;;;;;;1.19;100.00;99797.63;7398726;19;19914;-91
2024/01/15 11:45:43;;;;;;;2.92;0.57;;;;;;;1.22;100.00;99799.97;7396190;19;19939;-88
2024/01/15 11:48:14;;;;;;;1.58;0.40;;;;;;;1.24;100.00;99800.69;7396338;19;19939;-91
2024/01/15 11:50:45;;;;;;;1.48;0.60;;;;;;;1.19;100.00;99807.38;7368628;19;19918;-87